| time (UTC) | temp C | wind direction | speed KPH | gust KPH | rain 1hr cm | rain 24hr cm | rain mn cm | humidity % | barometer mb |
| 20260506124002 | 9 | 216 | 0.0 | 0.0 | 0.00 | 0.00 | 0.00 | 99 | 1010.0 |
| 20260506123002 | 9 | 217 | 0.0 | 0.0 | 0.00 | 0.00 | 0.00 | 99 | 1010.2 |
| 20260506114002 | 10 | 217 | 0.0 | 0.0 | 0.00 | 0.00 | 0.00 | 98 | 1009.9 |
| 20260506113002 | 10 | 216 | 0.0 | 0.0 | 0.00 | 0.00 | 0.00 | 98 | 1009.9 |
| 20260506112002 | 10 | 216 | 0.0 | 0.0 | 0.00 | 0.00 | 0.00 | 98 | 1009.9 |
| 20260506111003 | 10 | 218 | 0.0 | 0.0 | 0.00 | 0.00 | 0.00 | 98 | 1009.8 |
| 20260506110002 | 10 | 214 | 0.0 | 0.0 | 0.00 | 0.00 | 0.00 | 98 | 1010.0 |
| 20260506105002 | 10 | 217 | 0.0 | 0.0 | 0.00 | 0.00 | 0.00 | 98 | 1009.7 |
| 20260506104002 | 10 | 216 | 0.0 | 0.0 | 0.00 | 0.00 | 0.00 | 98 | 1009.8 |
| 20260506103002 | 10 | 228 | 0.0 | 0.0 | 0.00 | 0.00 | 0.00 | 98 | 1009.8 |
| 20260506102002 | 11 | 221 | 0.0 | 0.0 | 0.00 | 0.00 | 0.00 | 98 | 1009.5 |
| 20260506101002 | 10 | 215 | 0.0 | 0.0 | 0.00 | 0.00 | 0.00 | 98 | 1009.6 |
| 20260506100002 | 10 | 215 | 0.0 | 0.0 | 0.00 | 0.00 | 0.00 | 98 | 1009.4 |
| 20260506094002 | 10 | 218 | 0.0 | 0.0 | 0.00 | 0.00 | 0.00 | 98 | 1009.4 |
| 20260506093002 | 10 | 215 | 0.0 | 0.0 | 0.00 | 0.00 | 0.00 | 98 | 1009.4 |
| 20260506091002 | 10 | 213 | 0.0 | 0.0 | 0.00 | 0.00 | 0.00 | 98 | 1009.2 |
| 20260506090002 | 10 | 214 | 0.0 | 0.0 | 0.00 | 0.00 | 0.00 | 98 | 1009.3 |
| 20260506085002 | 10 | 213 | 0.0 | 0.0 | 0.00 | 0.00 | 0.00 | 98 | 1009.1 |
| 20260506083002 | 10 | 205 | 0.0 | 0.0 | 0.00 | 0.00 | 0.00 | 97 | 1009.3 |
| 20260506081003 | 10 | 229 | 0.0 | 0.0 | 0.00 | 0.00 | 0.00 | 97 | 1009.6 |
| 20260506072001 | 10 | 217 | 0.0 | 0.0 | 0.00 | 0.00 | 0.00 | 97 | 1009.4 |
| 20260506071003 | 10 | 212 | 0.0 | 0.0 | 0.00 | 0.00 | 0.00 | 97 | 1009.3 |
| 20260506062003 | 10 | 210 | 0.0 | 0.0 | 0.00 | 0.00 | 0.33 | 97 | 1009.0 |
| 20260506061002 | 10 | 226 | 0.0 | 0.0 | 0.00 | 0.00 | 0.33 | 97 | 1008.5 |
| 20260506051002 | 10 | 216 | 0.0 | 0.0 | 0.00 | 0.00 | 0.33 | 95 | 1008.4 |
| 20260506045002 | 11 | 222 | 0.0 | 0.0 | 0.00 | 0.00 | 0.33 | 94 | 1008.2 |
| 20260506044002 | 11 | 214 | 0.0 | 0.0 | 0.00 | 0.00 | 0.33 | 93 | 1008.1 |
| 20260506043003 | 11 | 217 | 0.0 | 0.0 | 0.00 | 0.00 | 0.33 | 93 | 1007.9 |
| 20260506042001 | 11 | 222 | 0.0 | 0.0 | 0.00 | 0.00 | 0.33 | 92 | 1007.8 |
| 20260506041003 | 11 | 218 | 0.0 | 0.0 | 0.00 | 0.00 | 0.33 | 91 | 1007.7 |
| 20260506040002 | 12 | 215 | 0.0 | 0.0 | 0.00 | 0.00 | 0.33 | 90 | 1007.5 |
| 20260506035002 | 12 | 222 | 0.0 | 0.0 | 0.00 | 0.00 | 0.33 | 88 | 1007.4 |
| 20260506034003 | 12 | 217 | 0.0 | 0.0 | 0.00 | 0.00 | 0.33 | 89 | 1007.2 |
| 20260506033002 | 12 | 220 | 0.0 | 0.0 | 0.00 | 0.00 | 0.33 | 88 | 1006.9 |
| 20260506032001 | 12 | 218 | 0.0 | 0.0 | 0.00 | 0.00 | 0.33 | 87 | 1006.8 |
| 20260506031003 | 13 | 216 | 0.0 | 0.0 | 0.00 | 0.00 | 0.33 | 86 | 1007.0 |
| 20260506030002 | 13 | 218 | 0.0 | 0.0 | 0.00 | 0.00 | 0.33 | 85 | 1006.8 |
| 20260506025002 | 13 | 227 | 0.0 | 0.0 | 0.00 | 0.00 | 0.33 | 85 | 1006.8 |
| 20260506024003 | 13 | 219 | 1.6 | 3.2 | 0.00 | 0.00 | 0.33 | 84 | 1006.8 |
| 20260506023003 | 13 | 218 | 0.0 | 0.0 | 0.00 | 0.00 | 0.33 | 84 | 1006.8 |
| 20260506022003 | 13 | 214 | 0.0 | 0.0 | 0.00 | 0.00 | 0.33 | 83 | 1006.7 |
| 20260506021004 | 13 | 241 | 0.0 | 0.0 | 0.00 | 0.00 | 0.33 | 83 | 1006.7 |
| 20260506020002 | 14 | 213 | 0.0 | 0.0 | 0.00 | 0.00 | 0.33 | 82 | 1006.6 |
| 20260506015002 | 14 | 216 | 0.0 | 0.0 | 0.00 | 0.00 | 0.33 | 82 | 1006.5 |
| 20260506014002 | 13 | 214 | 0.0 | 0.0 | 0.00 | 0.00 | 0.33 | 81 | 1006.6 |
| 20260506013002 | 14 | 214 | 0.0 | 0.0 | 0.00 | 0.00 | 0.33 | 81 | 1006.6 |
| 20260506012003 | 14 | 213 | 0.0 | 0.0 | 0.00 | 0.00 | 0.33 | 81 | 1006.6 |
| 20260506011002 | 14 | 217 | 0.0 | 0.0 | 0.00 | 0.00 | 0.33 | 80 | 1006.6 |
| 20260506010002 | 14 | 211 | 0.0 | 0.0 | 0.00 | 0.00 | 0.33 | 80 | 1006.5 |
| 20260506004002 | 13 | 213 | 0.0 | 0.0 | 0.00 | 0.00 | 0.33 | 80 | 1006.7 |
| 20260506003002 | 14 | 214 | 1.6 | 3.2 | 0.00 | 0.00 | 0.33 | 80 | 1006.5 |
| 20260506002002 | 14 | 212 | 0.0 | 0.0 | 0.00 | 0.00 | 0.33 | 81 | 1006.7 |
| 20260506001003 | 14 | 211 | 0.0 | 0.0 | 0.00 | 0.00 | 0.33 | 80 | 1006.6 |
| 20260506000002 | 14 | 214 | 0.0 | 0.0 | 0.00 | 0.00 | 0.33 | 80 | 1006.4 |
| 20260505235002 | 13 | 216 | 1.6 | 3.2 | 0.00 | 0.00 | 0.33 | 81 | 1006.3 |
| 20260505233002 | 13 | 229 | 0.0 | 0.0 | 0.00 | 0.00 | 0.33 | 82 | 1006.3 |
| 20260505232003 | 14 | 216 | 0.0 | 0.0 | 0.00 | 0.00 | 0.33 | 81 | 1006.2 |
| 20260505231003 | 14 | 247 | 3.2 | 4.8 | 0.00 | 0.00 | 0.33 | 80 | 1006.1 |
| 20260505224002 | 14 | 210 | 1.6 | 3.2 | 0.00 | 0.00 | 0.33 | 80 | 1006.2 |
| 20260505223003 | 14 | 246 | 3.2 | 4.8 | 0.00 | 0.00 | 0.33 | 81 | 1006.1 |
| 20260505221003 | 14 | 271 | 4.8 | 6.4 | 0.00 | 0.00 | 0.33 | 80 | 1006.2 |
| 20260505220002 | 14 | 207 | 0.0 | 0.0 | 0.00 | 0.00 | 0.33 | 80 | 1006.2 |
| 20260505215002 | 14 | 218 | 1.6 | 3.2 | 0.00 | 0.00 | 0.33 | 78 | 1006.2 |
| 20260505214003 | 15 | 214 | 0.0 | 0.0 | 0.00 | 0.00 | 0.33 | 78 | 1006.4 |
| 20260505213002 | 15 | 230 | 1.6 | 3.2 | 0.00 | 0.00 | 0.33 | 78 | 1006.5 |
| 20260505212003 | 15 | 220 | 0.0 | 0.0 | 0.00 | 0.00 | 0.33 | 77 | 1006.3 |
| 20260505205002 | 15 | 223 | 4.8 | 4.8 | 0.00 | 0.00 | 0.33 | 78 | 1006.3 |
| 20260505204001 | 15 | 239 | 4.8 | 6.4 | 0.00 | 0.00 | 0.33 | 77 | 1006.4 |
| 20260505203003 | 15 | 248 | 3.2 | 4.8 | 0.00 | 0.00 | 0.33 | 74 | 1006.2 |
| 20260505202001 | 15 | 220 | 1.6 | 3.2 | 0.00 | 0.00 | 0.33 | 75 | 1006.1 |
| 20260505201002 | 15 | 219 | 1.6 | 3.2 | 0.00 | 0.00 | 0.33 | 74 | 1006.2 |
| 20260505200002 | 15 | 215 | 0.0 | 0.0 | 0.00 | 0.00 | 0.33 | 75 | 1006.5 |
| 20260505195002 | 15 | 226 | 3.2 | 3.2 | 0.00 | 0.00 | 0.33 | 77 | 1006.5 |
| 20260505194002 | 14 | 219 | 1.6 | 3.2 | 0.00 | 0.00 | 0.33 | 80 | 1006.4 |
| 20260505193002 | 14 | 236 | 3.2 | 4.8 | 0.00 | 0.00 | 0.33 | 81 | 1006.5 |
| 20260505192003 | 15 | 216 | 1.6 | 3.2 | 0.00 | 0.00 | 0.33 | 79 | 1006.5 |
| 20260505191002 | 14 | 214 | 1.6 | 3.2 | 0.00 | 0.00 | 0.33 | 80 | 1006.1 |
| 20260505190003 | 14 | 203 | 1.6 | 3.2 | 0.00 | 0.00 | 0.33 | 81 | 1006.2 |
| 20260505185002 | 15 | 214 | 0.0 | 0.0 | 0.00 | 0.00 | 0.33 | 80 | 1006.3 |
| 20260505183002 | 12 | 211 | 0.0 | 0.0 | 0.00 | 0.00 | 0.33 | 87 | 1006.2 |
| 20260505182002 | 12 | 251 | 3.2 | 4.8 | 0.00 | 0.00 | 0.33 | 86 | 1006.4 |
| 20260505181002 | 12 | 268 | 3.2 | 4.8 | 0.00 | 0.00 | 0.33 | 85 | 1006.3 |
| 20260505180002 | 13 | 291 | 1.6 | 4.8 | 0.00 | 0.00 | 0.33 | 85 | 1005.8 |
| 20260505175003 | 12 | 220 | 0.0 | 0.0 | 0.00 | 0.00 | 0.33 | 88 | 1006.0 |
| 20260505174002 | 12 | 211 | 1.6 | 3.2 | 0.00 | 0.00 | 0.33 | 87 | 1006.0 |
| 20260505173002 | 12 | 275 | 4.8 | 6.4 | 0.00 | 0.00 | 0.33 | 87 | 1006.0 |
| 20260505172002 | 12 | 197 | 1.6 | 3.2 | 0.00 | 0.00 | 0.33 | 91 | 1005.9 |
| 20260505171003 | 11 | 217 | 0.0 | 0.0 | 0.00 | 0.00 | 0.33 | 92 | 1005.7 |
| 20260505170002 | 11 | 207 | 0.0 | 0.0 | 0.00 | 0.00 | 0.33 | 92 | 1005.7 |
| 20260505165002 | 10 | 272 | 3.2 | 4.8 | 0.00 | 0.00 | 0.33 | 94 | 1005.8 |
| 20260505164003 | 10 | 217 | 0.0 | 0.0 | 0.00 | 0.00 | 0.33 | 96 | 1005.8 |
| 20260505163002 | 10 | 217 | 0.0 | 0.0 | 0.00 | 0.00 | 0.33 | 98 | 1005.8 |
| 20260505162002 | 10 | 216 | 0.0 | 0.0 | 0.00 | 0.00 | 0.33 | 98 | 1005.8 |
| 20260505161003 | 10 | 221 | 0.0 | 0.0 | 0.00 | 0.00 | 0.33 | 98 | 1005.6 |
| 20260505153003 | 9 | 253 | 0.0 | 0.0 | 0.00 | 0.00 | 0.33 | 98 | 1005.4 |
| 20260505152002 | 9 | 216 | 0.0 | 0.0 | 0.00 | 0.00 | 0.33 | 98 | 1005.7 |
| 20260505151002 | 9 | 216 | 0.0 | 0.0 | 0.00 | 0.00 | 0.33 | 99 | 1005.5 |
| 20260505125002 | 9 | 220 | 0.0 | 0.0 | 0.00 | 0.00 | 0.23 | 99 | 1004.9 |